Time;durP1;ratioP1;P1;durP2;ratioP2;P2;SDS_P1;SDS_P2;PMS_P1;PMS_P2;Temp;Humidity;BMP_temperature;BMP_pressure;BME280_temperature;BME280_humidity;BME280_pressure;Samples;Min_cycle;Max_cycle;Signal;HPM_P1;HPM_P2
2023/07/11 00:02:09;;;;;;;7.07;3.97;;;;;;;;;;5046503;27;87668;-53
2023/07/11 00:04:38;;;;;;;6.13;4.27;;;;;;;;;;5053798;27;88642;-53
2023/07/11 00:07:07;;;;;;;7.17;4.00;;;;;;;;;;5040958;27;87489;-53
2023/07/11 00:09:37;;;;;;;8.33;3.87;;;;;;;;;;5043687;27;89301;-53
2023/07/11 00:12:08;;;;;;;7.23;3.83;;;;;;;;;;5054823;27;87619;-53
2023/07/11 00:14:36;;;;;;;7.27;4.43;;;;;;;;;;5061268;27;88592;-53
2023/07/11 00:17:07;;;;;;;9.77;5.00;;;;;;;;;;5035842;27;88265;-53
2023/07/11 00:19:47;;;;;;;8.37;5.20;;;;;;;;;;5028459;27;87273;-53
2023/07/11 00:22:15;;;;;;;7.63;5.07;;;;;;;;;;5030134;28;87457;-53
2023/07/11 00:24:43;;;;;;;8.20;4.80;;;;;;;;;;5032784;27;90025;-53
2023/07/11 00:27:13;;;;;;;8.03;5.53;;;;;;;;;;5041158;27;87949;-53
2023/07/11 00:29:41;;;;;;;6.63;5.10;;;;;;;;;;5040204;27;87304;-53
2023/07/11 00:32:10;;;;;;;9.20;5.93;;;;;;;;;;5035957;27;87785;-53
2023/07/11 00:34:38;;;;;;;6.90;4.87;;;;;;;;;;5039888;27;89748;-53
2023/07/11 00:37:07;;;;;;;7.83;5.00;;;;;;;;;;5031654;27;89389;-53
2023/07/11 00:39:35;;;;;;;9.27;5.50;;;;;;;;;;5033291;27;87412;-53
2023/07/11 00:42:04;;;;;;;7.70;4.87;;;;;;;;;;5030490;28;87592;-53
2023/07/11 00:44:47;;;;;;;8.00;5.13;;;;;;;;;;5041136;27;89656;-53
2023/07/11 00:47:17;;;;;;;7.97;4.63;;;;;;;;;;5039847;27;89043;-53
2023/07/11 00:49:46;;;;;;;10.83;4.67;;;;;;;;;;5031400;28;87503;-53
2023/07/11 00:52:14;;;;;;;8.30;4.67;;;;;;;;;;5041367;28;87725;-53
2023/07/11 00:54:43;;;;;;;6.33;4.80;;;;;;;;;;5039329;28;89055;-53
2023/07/11 00:57:11;;;;;;;7.40;4.17;;;;;;;;;;5025220;28;88867;-53
2023/07/11 00:59:40;;;;;;;7.33;4.20;;;;;;;;;;5040208;28;87553;-54
2023/07/11 01:02:09;;;;;;;8.10;4.30;;;;;;;;;;5041102;28;87731;-53
2023/07/11 01:04:38;;;;;;;6.67;3.93;;;;;;;;;;5058501;27;88550;-54
2023/07/11 01:07:08;;;;;;;6.97;4.70;;;;;;;;;;5045694;27;89191;-53
2023/07/11 01:09:36;;;;;;;6.13;3.73;;;;;;;;;;5035549;28;87313;-53
2023/07/11 01:12:06;;;;;;;6.17;3.37;;;;;;;;;;5041793;27;87664;-53
2023/07/11 01:14:35;;;;;;;5.57;4.27;;;;;;;;;;5032539;27;88430;-53
2023/07/11 01:17:18;;;;;;;6.00;3.90;;;;;;;;;;5040509;28;87985;-53
2023/07/11 01:19:48;;;;;;;5.93;4.17;;;;;;;;;;5041762;27;87535;-53
2023/07/11 01:22:18;;;;;;;6.33;4.27;;;;;;;;;;5031705;27;87643;-54
2023/07/11 01:24:47;;;;;;;5.10;3.23;;;;;;;;;;5027183;27;89704;-53
2023/07/11 01:27:19;;;;;;;4.67;3.13;;;;;;;;;;5040667;28;89201;-53
2023/07/11 01:29:48;;;;;;;4.93;2.93;;;;;;;;;;5041242;27;87330;-53
2023/07/11 01:32:21;;;;;;;6.17;3.33;;;;;;;;;;5026758;27;87608;-53
2023/07/11 01:34:54;;;;;;;5.10;3.33;;;;;;;;;;5027401;27;88853;-53
2023/07/11 01:37:23;;;;;;;4.57;3.40;;;;;;;;;;5041164;27;88164;-53
2023/07/11 01:39:52;;;;;;;4.67;3.17;;;;;;;;;;5041211;27;87454;-53
2023/07/11 01:42:20;;;;;;;4.40;3.03;;;;;;;;;;5041218;28;87241;-53
2023/07/11 01:44:49;;;;;;;4.13;2.87;;;;;;;;;;5038749;27;88608;-53
2023/07/11 01:47:21;;;;;;;4.13;3.03;;;;;;;;;;5025758;27;89212;-53
2023/07/11 01:49:50;;;;;;;6.77;3.17;;;;;;;;;;5040846;27;87421;-53
2023/07/11 01:52:19;;;;;;;3.77;2.63;;;;;;;;;;5045800;27;87629;-53
2023/07/11 01:54:50;;;;;;;3.90;2.73;;;;;;;;;;5047106;27;88694;-53
2023/07/11 01:57:21;;;;;;;4.40;2.60;;;;;;;;;;5045288;27;89204;-53
2023/07/11 01:59:53;;;;;;;3.97;2.27;;;;;;;;;;5044132;27;87351;-53
2023/07/11 02:02:22;;;;;;;2.90;2.20;;;;;;;;;;5045582;27;87559;-53
2023/07/11 02:04:51;;;;;;;4.40;2.60;;;;;;;;;;5053714;27;88604;-53
2023/07/11 02:07:19;;;;;;;3.13;2.50;;;;;;;;;;5053570;27;89458;-53
2023/07/11 02:09:49;;;;;;;2.97;2.13;;;;;;;;;;5044901;27;87361;-53
2023/07/11 02:12:18;;;;;;;3.90;2.30;;;;;;;;;;5052665;27;87684;-53
2023/07/11 02:14:46;;;;;;;3.80;2.50;;;;;;;;;;5047706;27;88680;-53
2023/07/11 02:17:16;;;;;;;4.77;2.47;;;;;;;;;;5050902;27;87531;-53
2023/07/11 02:19:45;;;;;;;4.40;2.33;;;;;;;;;;5048853;27;87463;-53
2023/07/11 02:22:13;;;;;;;4.73;2.07;;;;;;;;;;5044245;27;87635;-53
2023/07/11 02:24:42;;;;;;;2.93;2.13;;;;;;;;;;5044029;27;89524;-53
2023/07/11 02:27:12;;;;;;;2.63;1.80;;;;;;;;;;5043873;27;88063;-53
2023/07/11 02:29:40;;;;;;;4.27;2.53;;;;;;;;;;5052895;27;87430;-53
2023/07/11 02:32:09;;;;;;;2.93;2.00;;;;;;;;;;5059639;27;87651;-53
2023/07/11 02:34:37;;;;;;;2.47;1.80;;;;;;;;;;5044891;27;89952;-53
2023/07/11 02:37:05;;;;;;;4.13;2.20;;;;;;;;;;5041322;27;87690;-53
2023/07/11 02:39:34;;;;;;;1.57;1.30;;;;;;;;;;5049458;27;87596;-53
2023/07/11 02:42:05;;;;;;;4.03;1.60;;;;;;;;;;5048736;27;87620;-53
2023/07/11 02:44:35;;;;;;;1.83;1.53;;;;;;;;;;5043957;27;89654;-55
2023/07/11 02:47:03;;;;;;;2.00;1.50;;;;;;;;;;5043734;27;89257;-53
2023/07/11 02:49:32;;;;;;;1.97;1.57;;;;;;;;;;5048634;27;87547;-53
2023/07/11 02:52:00;;;;;;;2.80;1.57;;;;;;;;;;5054270;27;87704;-53
2023/07/11 02:54:28;;;;;;;1.90;1.47;;;;;;;;;;5046955;27;90179;-53
2023/07/11 02:56:57;;;;;;;2.00;1.40;;;;;;;;;;5032617;27;89096;-53
2023/07/11 02:59:25;;;;;;;1.97;1.57;;;;;;;;;;5045024;27;87590;-53
2023/07/11 03:01:56;;;;;;;2.20;1.43;;;;;;;;;;5056024;27;87886;-53
2023/07/11 03:04:24;;;;;;;1.60;1.40;;;;;;;;;;5055262;27;89894;-53
2023/07/11 03:06:56;;;;;;;1.87;1.73;;;;;;;;;;5047439;27;89211;-53
2023/07/11 03:09:24;;;;;;;2.27;1.50;;;;;;;;;;5052655;27;88146;-53
2023/07/11 03:11:53;;;;;;;1.60;1.40;;;;;;;;;;5059162;27;88073;-53
2023/07/11 03:14:21;;;;;;;2.67;1.57;;;;;;;;;;5050562;27;89003;-53
2023/07/11 03:16:51;;;;;;;2.47;1.50;;;;;;;;;;5041289;27;88505;-53
2023/07/11 03:19:21;;;;;;;2.23;1.43;;;;;;;;;;5040472;27;87521;-53
2023/07/11 03:21:49;;;;;;;1.87;1.20;;;;;;;;;;5040750;27;87639;-53
2023/07/11 03:24:17;;;;;;;1.83;1.10;;;;;;;;;;5040064;27;88762;-53
2023/07/11 03:26:46;;;;;;;2.33;1.13;;;;;;;;;;5041322;27;89088;-53
2023/07/11 03:29:14;;;;;;;1.70;1.40;;;;;;;;;;5058208;27;87476;-53
2023/07/11 03:31:43;;;;;;;2.03;1.27;;;;;;;;;;5041575;27;87799;-54
2023/07/11 03:34:12;;;;;;;1.83;1.13;;;;;;;;;;5052005;27;89689;-53
2023/07/11 03:36:41;;;;;;;1.93;1.30;;;;;;;;;;5039733;27;89121;-53
2023/07/11 03:39:10;;;;;;;2.07;1.00;;;;;;;;;;5053297;27;87391;-53
2023/07/11 03:41:38;;;;;;;1.20;1.10;;;;;;;;;;5042423;27;87877;-53
2023/07/11 03:44:06;;;;;;;1.13;1.00;;;;;;;;;;5048920;27;88736;-53
2023/07/11 03:46:35;;;;;;;1.97;1.10;;;;;;;;;;5041666;27;88027;-53
2023/07/11 03:49:03;;;;;;;1.87;1.30;;;;;;;;;;5045558;27;87490;-53
2023/07/11 03:51:32;;;;;;;2.57;1.33;;;;;;;;;;5045660;27;87483;-53
2023/07/11 03:54:01;;;;;;;2.17;1.10;;;;;;;;;;5044065;27;88714;-53
2023/07/11 03:56:31;;;;;;;1.10;0.97;;;;;;;;;;5049848;27;89280;-53
2023/07/11 03:59:02;;;;;;;1.50;1.03;;;;;;;;;;5046855;27;87528;-53
2023/07/11 04:01:33;;;;;;;1.00;0.90;;;;;;;;;;5043170;27;88089;-55
2023/07/11 04:04:02;;;;;;;1.20;1.00;;;;;;;;;;5054221;27;89676;-53
2023/07/11 04:06:30;;;;;;;1.10;1.00;;;;;;;;;;5032850;27;88901;-53
2023/07/11 04:08:58;;;;;;;1.00;0.90;;;;;;;;;;5042569;27;87297;-53
2023/07/11 04:11:28;;;;;;;1.20;0.80;;;;;;;;;;5046537;27;87761;-53
2023/07/11 04:14:00;;;;;;;3.23;0.60;;;;;;;;;;5056724;27;88689;-54
2023/07/11 04:16:34;;;;;;;2.73;0.83;;;;;;;;;;5045030;27;87583;-53
2023/07/11 04:19:03;;;;;;;1.10;0.70;;;;;;;;;;5045616;27;87424;-53
2023/07/11 04:21:31;;;;;;;1.30;1.00;;;;;;;;;;5052231;27;87625;-53
2023/07/11 04:23:59;;;;;;;1.13;0.77;;;;;;;;;;5045118;27;89678;-53
2023/07/11 04:26:29;;;;;;;0.30;0.30;;;;;;;;;;5049526;27;88121;-53
2023/07/11 04:28:58;;;;;;;1.23;0.80;;;;;;;;;;5054399;27;87628;-53
2023/07/11 04:31:28;;;;;;;1.50;0.90;;;;;;;;;;5051762;27;87222;-53
2023/07/11 04:33:58;;;;;;;2.50;0.60;;;;;;;;;;5045625;27;87901;-53
2023/07/11 04:36:27;;;;;;;2.80;0.73;;;;;;;;;;5045407;27;88140;-53
2023/07/11 04:38:57;;;;;;;0.70;0.70;;;;;;;;;;5047532;27;87298;-53
2023/07/11 04:41:25;;;;;;;1.30;0.60;;;;;;;;;;5048691;27;87567;-53
2023/07/11 04:43:55;;;;;;;1.23;0.67;;;;;;;;;;5050958;27;88661;-53
2023/07/11 04:46:25;;;;;;;2.10;0.97;;;;;;;;;;5049848;27;89187;-53
2023/07/11 04:48:54;;;;;;;0.77;0.43;;;;;;;;;;5053422;27;87330;-53
2023/07/11 04:51:22;;;;;;;1.87;0.77;;;;;;;;;;5044614;27;87715;-53
2023/07/11 04:53:50;;;;;;;0.87;0.53;;;;;;;;;;5044000;27;88519;-53
2023/07/11 04:56:19;;;;;;;0.53;0.50;;;;;;;;;;5052801;27;89270;-53
2023/07/11 04:58:47;;;;;;;0.50;0.50;;;;;;;;;;5041794;27;87368;-53
2023/07/11 05:01:17;;;;;;;0.50;0.50;;;;;;;;;;5042925;27;87762;-53
2023/07/11 05:03:49;;;;;;;0.90;0.70;;;;;;;;;;5041069;27;88660;-53
2023/07/11 05:06:18;;;;;;;2.37;0.77;;;;;;;;;;5049009;27;88108;-53
2023/07/11 05:08:46;;;;;;;1.07;0.50;;;;;;;;;;5061993;27;87455;-53
2023/07/11 05:11:16;;;;;;;0.50;0.50;;;;;;;;;;5046198;27;87485;-53
2023/07/11 05:13:45;;;;;;;0.93;0.47;;;;;;;;;;5046148;27;89765;-53
2023/07/11 05:16:14;;;;;;;0.97;0.50;;;;;;;;;;5045609;27;87967;-53
2023/07/11 05:18:44;;;;;;;0.87;0.40;;;;;;;;;;5062189;27;87304;-53
2023/07/11 05:21:14;;;;;;;0.80;0.50;;;;;;;;;;5049781;27;87686;-53
2023/07/11 05:23:42;;;;;;;1.87;0.70;;;;;;;;;;5052931;27;89020;-51
2023/07/11 05:26:10;;;;;;;1.40;0.80;;;;;;;;;;5042825;27;89007;-55
2023/07/11 05:28:39;;;;;;;2.13;0.80;;;;;;;;;;5053852;27;87340;-55
2023/07/11 05:31:07;;;;;;;2.17;1.20;;;;;;;;;;5036595;27;87848;-55
2023/07/11 05:33:36;;;;;;;6.20;1.40;;;;;;;;;;5033949;27;89002;-55
2023/07/11 05:39:02;;;;;;;2.80;1.40;;;;;;;;;;5034632;27;87411;-55
2023/07/11 05:41:31;;;;;;;1.33;1.20;;;;;;;;;;5045802;27;87320;-55
2023/07/11 05:43:59;;;;;;;1.77;1.10;;;;;;;;;;5053407;27;88613;-55
2023/07/11 05:46:28;;;;;;;3.20;1.57;;;;;;;;;;5057920;27;89062;-55
2023/07/11 05:48:57;;;;;;;2.73;1.67;;;;;;;;;;5055192;27;87577;-55
2023/07/11 05:51:26;;;;;;;3.13;1.50;;;;;;;;;;5051478;27;87603;-55
2023/07/11 05:53:55;;;;;;;2.73;1.73;;;;;;;;;;5049984;27;88627;-55
2023/07/11 05:56:23;;;;;;;2.90;1.73;;;;;;;;;;5045245;27;88106;-55
2023/07/11 05:58:54;;;;;;;2.27;1.93;;;;;;;;;;5048094;27;87672;-55
2023/07/11 06:01:23;;;;;;;2.07;1.60;;;;;;;;;;5049711;27;87821;-54
2023/07/11 06:03:52;;;;;;;3.13;2.00;;;;;;;;;;5045719;27;87627;-55
2023/07/11 06:06:20;;;;;;;4.93;2.20;;;;;;;;;;5043874;27;88575;-55
2023/07/11 06:08:50;;;;;;;2.67;1.80;;;;;;;;;;5048371;27;87658;-55
2023/07/11 06:11:19;;;;;;;3.67;2.33;;;;;;;;;;5053186;27;87597;-54
2023/07/11 06:13:48;;;;;;;3.37;2.17;;;;;;;;;;5046241;27;87493;-55
2023/07/11 06:16:22;;;;;;;3.60;2.10;;;;;;;;;;5055766;27;87981;-55
2023/07/11 06:18:53;;;;;;;2.63;1.93;;;;;;;;;;5060506;27;87660;-56
2023/07/11 06:21:23;;;;;;;2.97;2.23;;;;;;;;;;5044375;27;88619;-55
2023/07/11 06:23:53;;;;;;;3.00;1.90;;;;;;;;;;5047104;27;88797;-56
2023/07/11 06:26:25;;;;;;;2.70;1.93;;;;;;;;;;5051660;27;89377;-55
2023/07/11 06:28:53;;;;;;;7.57;2.43;;;;;;;;;;5062555;27;87271;-55
2023/07/11 06:31:22;;;;;;;2.57;1.90;;;;;;;;;;5046147;27;87808;-56
2023/07/11 06:33:51;;;;;;;3.93;2.00;;;;;;;;;;5044075;28;88517;-55
2023/07/11 06:36:19;;;;;;;3.90;2.00;;;;;;;;;;5042937;27;89195;-54
2023/07/11 06:38:48;;;;;;;4.00;2.17;;;;;;;;;;5041008;27;87550;-56
2023/07/11 06:41:19;;;;;;;3.43;1.93;;;;;;;;;;5049691;27;87735;-56
2023/07/11 06:43:51;;;;;;;4.93;2.40;;;;;;;;;;5050766;27;89807;-55
2023/07/11 06:46:22;;;;;;;2.73;2.13;;;;;;;;;;5046528;27;88178;-56
2023/07/11 06:48:50;;;;;;;2.23;2.03;;;;;;;;;;5062046;27;87857;-54
2023/07/11 06:51:19;;;;;;;3.40;2.13;;;;;;;;;;5053287;27;87679;-55
2023/07/11 06:53:47;;;;;;;3.70;2.60;;;;;;;;;;5049320;27;88783;-56
2023/07/11 06:56:15;;;;;;;2.70;2.30;;;;;;;;;;5051937;27;88000;-55
2023/07/11 06:58:47;;;;;;;4.30;1.77;;;;;;;;;;5051086;27;87397;-55
2023/07/11 07:01:16;;;;;;;4.77;3.23;;;;;;;;;;5044692;27;87455;-55
2023/07/11 07:04:04;;;;;;;6.33;3.00;;;;;;;;;;5047599;27;88527;-53
2023/07/11 07:06:35;;;;;;;4.90;2.80;;;;;;;;;;5043486;27;87567;-55
2023/07/11 07:09:04;;;;;;;3.17;1.87;;;;;;;;;;5057722;27;87195;-55
2023/07/11 07:11:32;;;;;;;2.20;2.00;;;;;;;;;;5052157;27;87663;-55
2023/07/11 07:14:02;;;;;;;4.13;2.50;;;;;;;;;;5057407;27;88369;-55
2023/07/11 07:16:37;;;;;;;3.57;2.10;;;;;;;;;;5042877;27;89126;-56
2023/07/11 07:19:06;;;;;;;3.23;2.10;;;;;;;;;;5043835;27;87469;-55
2023/07/11 07:21:34;;;;;;;2.83;2.37;;;;;;;;;;5045730;27;87698;-55
2023/07/11 07:24:05;;;;;;;4.80;2.20;;;;;;;;;;5043045;28;88600;-55
2023/07/11 07:26:37;;;;;;;3.90;2.00;;;;;;;;;;5056615;27;88471;-55
2023/07/11 07:29:07;;;;;;;2.30;1.77;;;;;;;;;;5050032;27;87425;-55
2023/07/11 07:31:39;;;;;;;3.00;1.90;;;;;;;;;;5042789;27;87723;-54
2023/07/11 07:34:08;;;;;;;3.37;1.73;;;;;;;;;;5050931;27;88942;-52
2023/07/11 07:36:37;;;;;;;4.10;2.37;;;;;;;;;;5052390;27;89241;-55
2023/07/11 07:39:06;;;;;;;2.97;1.83;;;;;;;;;;5043080;27;87247;-54
2023/07/11 07:41:36;;;;;;;2.23;1.60;;;;;;;;;;5042028;27;87350;-54
2023/07/11 07:44:06;;;;;;;2.70;2.17;;;;;;;;;;5041787;27;89634;-54
2023/07/11 07:46:36;;;;;;;2.93;1.90;;;;;;;;;;5042620;27;88273;-54
2023/07/11 07:49:07;;;;;;;3.37;1.63;;;;;;;;;;5041731;27;87717;-54
2023/07/11 07:51:37;;;;;;;4.10;1.90;;;;;;;;;;5042613;27;87602;-54
2023/07/11 07:54:06;;;;;;;2.90;1.67;;;;;;;;;;5042362;27;89173;-54
2023/07/11 07:56:36;;;;;;;1.70;1.53;;;;;;;;;;5042133;27;89149;-54
2023/07/11 07:59:04;;;;;;;3.13;1.80;;;;;;;;;;5042604;27;87340;-54
2023/07/11 08:01:33;;;;;;;1.80;1.60;;;;;;;;;;5042413;27;87378;-54
2023/07/11 08:04:02;;;;;;;2.40;1.70;;;;;;;;;;5042266;28;89938;-54
2023/07/11 08:06:35;;;;;;;1.40;1.30;;;;;;;;;;5040368;28;88368;-55
2023/07/11 08:09:03;;;;;;;2.27;1.57;;;;;;;;;;5042438;28;87453;-54
2023/07/11 08:11:32;;;;;;;2.90;1.77;;;;;;;;;;5042671;27;87640;-54
2023/07/11 08:14:02;;;;;;;1.90;1.43;;;;;;;;;;5042255;27;88530;-54
2023/07/11 08:16:30;;;;;;;3.17;1.53;;;;;;;;;;5041622;27;87971;-54
2023/07/11 08:19:04;;;;;;;1.70;1.43;;;;;;;;;;5042856;27;87277;-55
2023/07/11 08:21:34;;;;;;;2.03;1.40;;;;;;;;;;5042620;27;87491;-54
2023/07/11 08:24:02;;;;;;;1.93;1.50;;;;;;;;;;5042502;27;88599;-55
2023/07/11 08:26:30;;;;;;;1.23;0.97;;;;;;;;;;5041671;27;87924;-54
2023/07/11 08:28:59;;;;;;;3.07;1.50;;;;;;;;;;5041680;27;89291;-54
2023/07/11 08:31:38;;;;;;;1.30;1.20;;;;;;;;;;5041347;27;87695;-54
2023/07/11 08:34:08;;;;;;;3.73;1.40;;;;;;;;;;5041535;27;90754;-54
2023/07/11 08:36:38;;;;;;;1.90;1.23;;;;;;;;;;5041112;27;88631;-54
2023/07/11 08:39:08;;;;;;;2.27;1.20;;;;;;;;;;5041793;27;87610;-54
2023/07/11 08:41:39;;;;;;;1.10;1.00;;;;;;;;;;5041826;27;87659;-54
2023/07/11 08:44:10;;;;;;;1.50;1.30;;;;;;;;;;5040396;27;89755;-54
2023/07/11 08:46:41;;;;;;;1.37;1.03;;;;;;;;;;5041612;28;89154;-54
2023/07/11 08:49:12;;;;;;;1.50;1.07;;;;;;;;;;5041839;28;87330;-54
2023/07/11 08:51:43;;;;;;;1.57;1.07;;;;;;;;;;5042346;27;87482;-54
2023/07/11 08:54:12;;;;;;;1.73;1.20;;;;;;;;;;5042065;27;88571;-54
2023/07/11 08:56:41;;;;;;;1.27;1.00;;;;;;;;;;5041600;27;87552;-54
2023/07/11 08:59:16;;;;;;;1.47;0.90;;;;;;;;;;5041711;27;87636;-54
2023/07/11 09:01:46;;;;;;;1.10;1.00;;;;;;;;;;5045537;27;87599;-54
2023/07/11 09:04:16;;;;;;;0.87;0.73;;;;;;;;;;5045270;27;89749;-54
2023/07/11 09:06:45;;;;;;;1.07;1.00;;;;;;;;;;5045343;27;88172;-54
2023/07/11 09:09:13;;;;;;;1.07;0.77;;;;;;;;;;5045497;27;87340;-54
2023/07/11 09:11:43;;;;;;;0.67;0.67;;;;;;;;;;5045335;27;87654;-54
2023/07/11 09:14:15;;;;;;;1.13;0.80;;;;;;;;;;5044914;27;88170;-54
2023/07/11 09:16:45;;;;;;;1.33;0.90;;;;;;;;;;5045215;28;88117;-54
2023/07/11 09:19:18;;;;;;;1.83;0.90;;;;;;;;;;5045213;28;87089;-54
2023/07/11 09:21:48;;;;;;;0.90;0.80;;;;;;;;;;5044988;27;87434;-54
2023/07/11 09:24:17;;;;;;;1.70;0.90;;;;;;;;;;5045011;27;88598;-55
2023/07/11 09:26:50;;;;;;;1.10;0.80;;;;;;;;;;5045126;27;87327;-54
2023/07/11 09:29:18;;;;;;;0.60;0.60;;;;;;;;;;5044988;27;87378;-54
2023/07/11 09:31:48;;;;;;;0.90;0.70;;;;;;;;;;5045084;27;87622;-55
2023/07/11 09:34:20;;;;;;;1.60;0.93;;;;;;;;;;5044920;27;88540;-54
2023/07/11 09:36:49;;;;;;;1.00;0.83;;;;;;;;;;5044678;27;88135;-55
2023/07/11 09:39:18;;;;;;;1.73;0.90;;;;;;;;;;5045370;28;87330;-54
2023/07/11 09:41:47;;;;;;;1.63;0.93;;;;;;;;;;5036680;27;87631;-54
2023/07/11 09:44:18;;;;;;;1.67;1.03;;;;;;;;;;5035213;28;89761;-54
2023/07/11 09:46:46;;;;;;;1.73;1.03;;;;;;;;;;5044639;27;88252;-54
2023/07/11 09:49:16;;;;;;;1.00;0.90;;;;;;;;;;5044427;27;87206;-54
2023/07/11 09:51:48;;;;;;;1.23;0.90;;;;;;;;;;5044998;27;87621;-54
2023/07/11 09:54:17;;;;;;;1.20;1.03;;;;;;;;;;5044819;27;89766;-54
2023/07/11 09:56:46;;;;;;;4.10;1.00;;;;;;;;;;5043861;27;89030;-54
2023/07/11 09:59:15;;;;;;;2.67;0.93;;;;;;;;;;5044460;27;87279;-54
2023/07/11 10:01:43;;;;;;;1.20;0.87;;;;;;;;;;5044505;28;87547;-54
2023/07/11 10:04:14;;;;;;;1.20;1.00;;;;;;;;;;5044624;27;88454;-54
2023/07/11 10:06:44;;;;;;;1.40;0.80;;;;;;;;;;5044126;27;89327;-54
2023/07/11 10:09:18;;;;;;;1.60;0.73;;;;;;;;;;5044785;28;87356;-54
2023/07/11 10:11:53;;;;;;;0.93;0.73;;;;;;;;;;5042800;27;88703;-54
2023/07/11 10:14:22;;;;;;;1.17;0.77;;;;;;;;;;5043337;27;89877;-54
2023/07/11 10:16:50;;;;;;;1.37;0.90;;;;;;;;;;5044112;28;88035;-54
2023/07/11 10:19:22;;;;;;;1.33;0.90;;;;;;;;;;5044378;27;87405;-54
2023/07/11 10:21:50;;;;;;;1.00;0.90;;;;;;;;;;5044399;27;87135;-54
2023/07/11 10:24:21;;;;;;;1.47;0.93;;;;;;;;;;5044193;27;89781;-54
2023/07/11 10:26:51;;;;;;;1.17;1.03;;;;;;;;;;5043657;27;88182;-54
2023/07/11 10:29:20;;;;;;;1.67;1.17;;;;;;;;;;5044445;27;87515;-54
2023/07/11 10:31:54;;;;;;;1.40;1.30;;;;;;;;;;5044031;27;87381;-54
2023/07/11 10:34:23;;;;;;;1.23;0.83;;;;;;;;;;5044221;27;89787;-54
2023/07/11 10:36:52;;;;;;;0.70;0.70;;;;;;;;;;5040915;27;88283;-55
2023/07/11 10:39:22;;;;;;;2.60;0.90;;;;;;;;;;5034085;28;87547;-55
2023/07/11 10:41:51;;;;;;;1.07;0.77;;;;;;;;;;5043287;27;87784;-55
2023/07/11 10:44:21;;;;;;;1.10;0.63;;;;;;;;;;5043246;27;88756;-55
2023/07/11 10:46:49;;;;;;;1.80;1.10;;;;;;;;;;5043944;28;88154;-54
2023/07/11 10:49:19;;;;;;;1.27;1.07;;;;;;;;;;5043975;28;87300;-54
2023/07/11 10:51:49;;;;;;;1.77;0.90;;;;;;;;;;5043624;27;87675;-55
2023/07/11 10:54:20;;;;;;;1.90;0.97;;;;;;;;;;5042897;27;89904;-54
2023/07/11 10:56:51;;;;;;;1.63;0.80;;;;;;;;;;5043334;27;89197;-55
2023/07/11 10:59:20;;;;;;;1.20;1.00;;;;;;;;;;5043858;27;87425;-54
2023/07/11 11:01:54;;;;;;;1.17;1.00;;;;;;;;;;5042958;27;87419;-54
2023/07/11 11:04:28;;;;;;;1.00;0.77;;;;;;;;;;5043343;27;88746;-54
2023/07/11 11:06:57;;;;;;;1.23;0.87;;;;;;;;;;5040536;28;88956;-54
2023/07/11 11:09:29;;;;;;;2.37;0.77;;;;;;;;;;5044732;27;87317;-54
2023/07/11 11:12:01;;;;;;;2.53;0.83;;;;;;;;;;5048427;27;87533;-54
2023/07/11 11:14:31;;;;;;;4.83;1.20;;;;;;;;;;5042663;27;87563;-53
2023/07/11 11:17:02;;;;;;;3.03;1.00;;;;;;;;;;5046918;27;89280;-55
2023/07/11 11:19:34;;;;;;;1.73;1.17;;;;;;;;;;5047395;27;87489;-54
2023/07/11 11:22:06;;;;;;;1.67;1.10;;;;;;;;;;5036998;27;87492;-54
2023/07/11 11:24:45;;;;;;;2.90;1.37;;;;;;;;;;5038856;27;89601;-55
2023/07/11 11:27:18;;;;;;;1.70;1.10;;;;;;;;;;5040282;27;88994;-54
2023/07/11 11:29:52;;;;;;;2.23;1.57;;;;;;;;;;5040759;27;87484;-54
2023/07/11 11:32:23;;;;;;;9.67;1.67;;;;;;;;;;5040520;27;87893;-55
2023/07/11 11:34:58;;;;;;;4.20;1.37;;;;;;;;;;5038364;27;88874;-55
2023/07/11 11:37:45;;;;;;;2.80;1.40;;;;;;;;;;5042997;28;88435;-55
2023/07/11 11:40:15;;;;;;;2.93;1.87;;;;;;;;;;5042850;27;87282;-55
2023/07/11 11:42:45;;;;;;;2.77;1.90;;;;;;;;;;5042792;27;87634;-55
2023/07/11 11:45:15;;;;;;;1.87;1.50;;;;;;;;;;5043091;27;88576;-54
2023/07/11 11:47:47;;;;;;;5.10;1.57;;;;;;;;;;5042714;27;87520;-55
2023/07/11 11:50:18;;;;;;;1.73;1.20;;;;;;;;;;5040698;27;87373;-54
2023/07/11 11:52:55;;;;;;;2.87;1.80;;;;;;;;;;5041312;27;87799;-55
2023/07/11 11:55:27;;;;;;;3.87;1.53;;;;;;;;;;5042632;27;88467;-55
2023/07/11 11:57:56;;;;;;;3.27;1.70;;;;;;;;;;5042777;27;89369;-55
2023/07/11 12:00:32;;;;;;;2.23;1.63;;;;;;;;;;5042865;27;87587;-54
2023/07/11 12:03:00;;;;;;;2.03;1.53;;;;;;;;;;5042846;27;87486;-54
2023/07/11 12:05:29;;;;;;;3.17;1.37;;;;;;;;;;5042718;27;90045;-54
2023/07/11 12:08:17;;;;;;;2.83;1.13;;;;;;;;;;5042408;27;88005;-54
2023/07/11 12:10:56;;;;;;;3.67;1.40;;;;;;;;;;5042428;27;87171;-55
2023/07/11 12:13:29;;;;;;;1.27;0.80;;;;;;;;;;5042754;27;87459;-55
2023/07/11 12:15:58;;;;;;;3.13;1.73;;;;;;;;;;5042471;27;88543;-54
2023/07/11 12:18:44;;;;;;;2.63;1.40;;;;;;;;;;5042259;27;87535;-54
2023/07/11 12:21:46;;;;;;;3.67;1.63;;;;;;;;;;5042354;27;87562;-55
2023/07/11 12:24:20;;;;;;;2.90;1.40;;;;;;;;;;5042394;27;87546;-55
2023/07/11 12:26:52;;;;;;;3.67;1.50;;;;;;;;;;5041523;28;88214;-54
2023/07/11 12:29:37;;;;;;;2.83;1.13;;;;;;;;;;5042347;27;88977;-55
2023/07/11 12:32:23;;;;;;;1.73;1.00;;;;;;;;;;5042345;27;87385;-55
2023/07/11 12:34:55;;;;;;;1.70;1.10;;;;;;;;;;5038347;27;87600;-54
2023/07/11 12:37:24;;;;;;;1.67;1.13;;;;;;;;;;5042198;27;88662;-55
2023/07/11 12:39:55;;;;;;;1.30;1.20;;;;;;;;;;5041828;27;88088;-55
2023/07/11 12:42:36;;;;;;;2.53;1.40;;;;;;;;;;5041973;27;87279;-54
2023/07/11 12:45:14;;;;;;;1.47;1.10;;;;;;;;;;5042099;27;87345;-55
2023/07/11 12:47:43;;;;;;;1.73;1.30;;;;;;;;;;5042133;27;87969;-55
2023/07/11 12:50:19;;;;;;;1.87;1.30;;;;;;;;;;5042064;27;89185;-58
2023/07/11 12:52:47;;;;;;;3.90;1.50;;;;;;;;;;5041772;27;87525;-55
2023/07/11 12:55:16;;;;;;;1.07;0.93;;;;;;;;;;5042213;28;87532;-55
2023/07/11 12:57:45;;;;;;;1.67;1.03;;;;;;;;;;5041801;27;88693;-55
2023/07/11 13:00:22;;;;;;;2.13;1.07;;;;;;;;;;5041974;27;88180;-55
2023/07/11 13:02:51;;;;;;;2.03;1.00;;;;;;;;;;5041804;27;87399;-55
2023/07/11 13:05:19;;;;;;;3.27;1.03;;;;;;;;;;5042218;27;87306;-55
2023/07/11 13:07:48;;;;;;;1.93;1.30;;;;;;;;;;5041411;27;89582;-55
2023/07/11 13:10:21;;;;;;;1.13;1.03;;;;;;;;;;5041710;27;88103;-55
2023/07/11 13:12:51;;;;;;;1.97;0.97;;;;;;;;;;5041974;27;87355;-55
2023/07/11 13:15:20;;;;;;;0.90;0.70;;;;;;;;;;5041988;27;87607;-55
2023/07/11 13:17:51;;;;;;;2.60;0.97;;;;;;;;;;5041535;27;90243;-54
2023/07/11 13:20:20;;;;;;;2.73;1.20;;;;;;;;;;5041431;27;88005;-55
2023/07/11 13:22:49;;;;;;;3.33;0.90;;;;;;;;;;5041673;27;87350;-55
2023/07/11 13:25:18;;;;;;;1.03;0.70;;;;;;;;;;5041845;27;87733;-55
2023/07/11 13:27:47;;;;;;;2.43;1.00;;;;;;;;;;5041391;27;88554;-54
2023/07/11 13:30:19;;;;;;;3.10;1.20;;;;;;;;;;5041399;27;88297;-54
2023/07/11 13:32:49;;;;;;;1.70;1.07;;;;;;;;;;5041582;27;87479;-55
2023/07/11 13:35:19;;;;;;;1.23;0.80;;;;;;;;;;5041285;27;88362;-55
2023/07/11 13:37:50;;;;;;;2.10;0.97;;;;;;;;;;5041443;27;88626;-55
2023/07/11 13:40:34;;;;;;;1.23;1.00;;;;;;;;;;5041451;27;89138;-55
2023/07/11 13:43:03;;;;;;;1.80;0.90;;;;;;;;;;5040734;27;87281;-54
2023/07/11 13:45:33;;;;;;;1.50;0.93;;;;;;;;;;5041797;27;87564;-54
2023/07/11 13:48:01;;;;;;;1.57;0.67;;;;;;;;;;5043536;27;89809;-55
2023/07/11 13:50:31;;;;;;;7.47;0.70;;;;;;;;;;5044705;27;87996;-55
2023/07/11 13:53:02;;;;;;;0.50;0.50;;;;;;;;;;5044967;27;87507;-55
2023/07/11 13:55:44;;;;;;;1.33;0.70;;;;;;;;;;5045026;27;87571;-55
2023/07/11 13:58:13;;;;;;;4.97;1.00;;;;;;;;;;5044969;27;88480;-55
2023/07/11 14:00:45;;;;;;;2.30;0.70;;;;;;;;;;5044394;27;88095;-55
2023/07/11 14:03:15;;;;;;;0.50;0.50;;;;;;;;;;5044389;27;87325;-55
2023/07/11 14:05:48;;;;;;;1.37;0.70;;;;;;;;;;5044687;27;87669;-55
2023/07/11 14:08:19;;;;;;;0.53;0.50;;;;;;;;;;5044503;27;89762;-55
2023/07/11 14:10:48;;;;;;;1.80;0.60;;;;;;;;;;5044656;27;89271;-55
2023/07/11 14:13:19;;;;;;;0.90;0.60;;;;;;;;;;5044685;27;87111;-55
2023/07/11 14:15:48;;;;;;;1.47;0.60;;;;;;;;;;5044665;27;87594;-54
2023/07/11 14:18:16;;;;;;;1.63;0.60;;;;;;;;;;5044646;27;88537;-54
2023/07/11 14:20:44;;;;;;;1.90;0.77;;;;;;;;;;5044673;27;89180;-55
2023/07/11 14:23:17;;;;;;;1.57;0.70;;;;;;;;;;5044433;27;87353;-54
2023/07/11 14:25:45;;;;;;;2.00;0.63;;;;;;;;;;5044478;27;87572;-55
2023/07/11 14:28:14;;;;;;;2.20;0.70;;;;;;;;;;5044083;27;89780;-55
2023/07/11 14:30:42;;;;;;;0.50;0.40;;;;;;;;;;5044242;27;88023;-55
2023/07/11 14:33:11;;;;;;;0.40;0.40;;;;;;;;;;5044244;27;87174;-55
2023/07/11 14:35:39;;;;;;;0.90;0.70;;;;;;;;;;5044260;27;87689;-55
2023/07/11 14:38:11;;;;;;;6.03;0.60;;;;;;;;;;5043771;27;88743;-55
2023/07/11 14:40:41;;;;;;;2.00;0.80;;;;;;;;;;5044082;27;87999;-54
2023/07/11 14:43:12;;;;;;;0.50;0.50;;;;;;;;;;5043048;27;87586;-54
2023/07/11 14:45:41;;;;;;;0.70;0.70;;;;;;;;;;5041177;27;87618;-55
2023/07/11 14:48:14;;;;;;;0.70;0.50;;;;;;;;;;5040920;27;89407;-54
2023/07/11 14:50:42;;;;;;;0.83;0.53;;;;;;;;;;5040596;27;88947;-55
2023/07/11 14:53:15;;;;;;;0.67;0.47;;;;;;;;;;5041196;27;87502;-55
2023/07/11 14:55:45;;;;;;;1.07;0.50;;;;;;;;;;5040991;27;87555;-55
2023/07/11 14:58:16;;;;;;;1.30;0.67;;;;;;;;;;5038922;27;89023;-55
2023/07/11 15:00:47;;;;;;;0.40;0.40;;;;;;;;;;5040764;27;88146;-54
2023/07/11 15:03:21;;;;;;;0.63;0.43;;;;;;;;;;5040748;27;87540;-54
2023/07/11 15:06:09;;;;;;;3.10;0.60;;;;;;;;;;5040795;27;87610;-54